createdAt,value
2024-04-16T00:01:21.724Z,1.50
2024-04-16T00:03:49.298Z,1.67
2024-04-16T00:08:48.356Z,1.23
2024-04-16T00:11:16.149Z,1.48
2024-04-16T00:13:43.851Z,1.10
2024-04-16T00:16:31.885Z,1.40
2024-04-16T00:19:02.464Z,2.47
2024-04-16T00:21:30.731Z,1.58
2024-04-16T00:26:26.323Z,1.63
2024-04-16T00:28:56.848Z,2.63
2024-04-16T00:33:51.976Z,1.23
2024-04-16T00:36:19.884Z,1.45
2024-04-16T00:38:47.752Z,1.77
2024-04-16T00:41:15.406Z,1.30
2024-04-16T00:43:43.526Z,2.95
2024-04-16T00:46:12.759Z,1.95
2024-04-16T00:48:41.397Z,1.77
2024-04-16T00:51:09.035Z,2.63
2024-04-16T00:53:37.985Z,1.52
2024-04-16T00:56:06.202Z,1.75
2024-04-16T00:58:35.265Z,1.50
2024-04-16T01:01:03.148Z,1.42
2024-04-16T01:03:31.070Z,1.73
2024-04-16T01:05:58.975Z,1.58
2024-04-16T01:08:26.844Z,1.38
2024-04-16T01:10:54.409Z,1.55
2024-04-16T01:13:22.126Z,2.22
2024-04-16T01:18:20.342Z,1.92
2024-04-16T01:20:48.630Z,1.20
2024-04-16T01:23:16.310Z,1.70
2024-04-16T01:25:44.060Z,2.22
2024-04-16T01:28:12.121Z,1.80
2024-04-16T01:33:09.181Z,2.20
2024-04-16T01:35:36.987Z,2.38
2024-04-16T01:38:04.668Z,2.60
2024-04-16T01:40:32.396Z,2.47
2024-04-16T01:42:59.946Z,2.20
2024-04-16T01:45:27.616Z,2.15
2024-04-16T01:47:55.308Z,1.70
2024-04-16T01:52:50.398Z,1.38
2024-04-16T01:55:17.995Z,2.22
2024-04-16T01:57:45.717Z,2.33
2024-04-16T02:00:13.501Z,1.23
2024-04-16T02:05:08.718Z,1.92
2024-04-16T02:07:36.638Z,2.33
2024-04-16T02:10:04.393Z,1.58
2024-04-16T02:14:59.379Z,1.75
2024-04-16T02:19:54.736Z,2.15
2024-04-16T02:22:22.565Z,1.40
2024-04-16T02:24:51.153Z,1.50
2024-04-16T02:27:18.971Z,2.00
2024-04-16T02:32:14.267Z,2.30
2024-04-16T02:34:42.050Z,2.03
2024-04-16T02:37:09.846Z,1.70
2024-04-16T02:39:37.377Z,2.50
2024-04-16T02:42:05.209Z,1.42
2024-04-16T02:47:03.034Z,2.03
2024-04-16T02:49:32.684Z,1.77
2024-04-16T02:52:00.326Z,1.40
2024-04-16T02:54:28.221Z,1.90
2024-04-16T02:56:55.823Z,1.52
2024-04-16T02:59:23.394Z,1.70
2024-04-16T03:01:51.141Z,1.95
2024-04-16T03:06:46.587Z,1.60
2024-04-16T03:09:14.263Z,2.45
2024-04-16T03:11:41.905Z,3.78
2024-04-16T03:14:09.654Z,3.25
2024-04-16T03:16:37.734Z,3.30
2024-04-16T03:19:05.897Z,2.50
2024-04-16T03:24:01.111Z,2.05
2024-04-16T03:26:28.653Z,2.50
2024-04-16T03:28:56.572Z,2.20
2024-04-16T03:31:24.193Z,3.95
2024-04-16T03:33:51.847Z,3.03
2024-04-16T03:36:19.434Z,1.92
2024-04-16T03:38:47.264Z,2.42
2024-04-16T03:41:14.809Z,2.72
2024-04-16T03:43:42.944Z,1.88
2024-04-16T03:46:12.554Z,2.25
2024-04-16T03:48:40.245Z,2.25
2024-04-16T03:51:07.799Z,1.90
2024-04-16T03:53:36.701Z,1.63
2024-04-16T03:56:04.491Z,1.73
2024-04-16T03:58:33.790Z,1.88
2024-04-16T04:01:05.301Z,1.33
2024-04-16T04:03:33.786Z,2.17
2024-04-16T04:06:01.897Z,1.67
2024-04-16T04:08:32.406Z,1.92
2024-04-16T04:11:03.193Z,1.17
2024-04-16T04:13:30.712Z,1.80
2024-04-16T04:15:58.692Z,1.30
2024-04-16T04:18:26.481Z,2.03
2024-04-16T04:20:54.241Z,1.45
2024-04-16T04:25:49.280Z,1.23
2024-04-16T04:28:17.058Z,1.63
2024-04-16T04:30:44.555Z,2.28
2024-04-16T04:33:12.732Z,2.35
2024-04-16T04:35:40.360Z,1.95
2024-04-16T04:38:07.909Z,1.77
2024-04-16T04:40:36.300Z,1.73
2024-04-16T04:43:04.169Z,1.35
2024-04-16T04:45:31.877Z,1.50
2024-04-16T04:47:59.734Z,1.50
2024-04-16T04:50:27.519Z,1.50
2024-04-16T04:52:55.143Z,1.98
2024-04-16T04:55:23.333Z,1.92
2024-04-16T04:57:51.295Z,2.03
2024-04-16T05:02:47.788Z,2.63
2024-04-16T05:05:17.248Z,2.47
2024-04-16T05:07:45.643Z,2.63
2024-04-16T05:10:17.759Z,1.55
2024-04-16T05:12:50.311Z,1.30
2024-04-16T05:15:18.958Z,1.90
2024-04-16T05:17:47.037Z,1.90
2024-04-16T05:20:15.472Z,1.60
2024-04-16T05:22:45.016Z,2.03
2024-04-16T05:25:13.319Z,1.30
2024-04-16T05:27:46.797Z,1.58
2024-04-16T05:30:14.225Z,2.40
2024-04-16T05:32:41.974Z,1.30
2024-04-16T05:35:12.560Z,1.80
2024-04-16T05:37:40.382Z,1.52
2024-04-16T05:42:35.952Z,1.02
2024-04-16T05:45:03.678Z,0.98
2024-04-16T05:47:32.067Z,1.48
2024-04-16T05:49:59.933Z,1.10
2024-04-16T05:52:27.709Z,1.30
2024-04-16T05:54:55.527Z,1.83
2024-04-16T05:57:29.492Z,1.48
2024-04-16T06:00:07.508Z,2.08
2024-04-16T06:02:42.803Z,1.35
2024-04-16T06:05:11.096Z,2.05
2024-04-16T06:07:51.990Z,2.35
2024-04-16T06:10:29.228Z,1.35
2024-04-16T06:12:57.422Z,1.10
2024-04-16T06:15:25.359Z,1.02
2024-04-16T06:17:53.290Z,1.77
2024-04-16T06:20:21.120Z,2.00
2024-04-16T06:22:50.600Z,1.70
2024-04-16T06:25:20.295Z,1.85
2024-04-16T06:30:15.856Z,1.40
2024-04-16T06:35:14.925Z,1.55
2024-04-16T06:37:43.030Z,1.13
2024-04-16T06:40:11.521Z,1.13
2024-04-16T06:42:46.886Z,1.50
2024-04-16T06:45:16.793Z,1.10
2024-04-16T06:47:47.905Z,1.45
2024-04-16T06:50:16.560Z,2.08
2024-04-16T06:52:45.562Z,1.05
2024-04-16T06:55:15.010Z,2.28
2024-04-16T06:57:43.020Z,1.30
2024-04-16T07:00:12.399Z,1.90
2024-04-16T07:02:40.278Z,2.03
2024-04-16T07:05:07.995Z,1.55
2024-04-16T07:10:03.156Z,1.23
2024-04-16T07:12:33.273Z,1.30
2024-04-16T07:15:00.996Z,2.83
2024-04-16T07:17:32.125Z,1.77
2024-04-16T07:19:59.915Z,1.85
2024-04-16T07:22:30.708Z,2.50
2024-04-16T07:25:06.997Z,1.67
2024-04-16T07:27:37.382Z,1.27
2024-04-16T07:30:05.654Z,1.52
2024-04-16T07:32:36.834Z,1.70
2024-04-16T07:35:05.106Z,1.27
2024-04-16T07:38:01.855Z,1.73
2024-04-16T07:40:35.415Z,1.20
2024-04-16T07:43:18.673Z,1.33
2024-04-16T07:46:05.300Z,1.75
2024-04-16T07:48:34.083Z,1.13
2024-04-16T07:51:04.357Z,1.15
2024-04-16T07:53:35.820Z,1.73
2024-04-16T07:56:04.054Z,1.25
2024-04-16T07:58:32.077Z,2.05
2024-04-16T08:00:59.687Z,1.30
2024-04-16T08:03:27.386Z,1.42
2024-04-16T08:05:55.235Z,1.55
2024-04-16T08:08:34.832Z,1.13
2024-04-16T08:11:11.076Z,1.30
2024-04-16T08:13:39.837Z,1.38
2024-04-16T08:16:08.296Z,1.60
2024-04-16T08:18:37.842Z,1.20
2024-04-16T08:21:06.363Z,1.25
2024-04-16T08:23:35.109Z,1.73
2024-04-16T08:26:07.265Z,1.20
2024-04-16T08:28:37.910Z,0.60
2024-04-16T08:31:15.397Z,1.05
2024-04-16T08:33:47.575Z,1.65
2024-04-16T08:36:28.172Z,1.40
2024-04-16T08:39:02.195Z,1.23
2024-04-16T08:41:31.207Z,1.10
2024-04-16T08:44:00.979Z,1.20
2024-04-16T08:46:30.809Z,0.65
2024-04-16T08:48:59.719Z,1.00
2024-04-16T08:51:28.144Z,1.20
2024-04-16T08:53:56.401Z,1.05
2024-04-16T08:56:26.793Z,0.80
2024-04-16T08:58:58.156Z,1.00
2024-04-16T09:01:27.388Z,1.23
2024-04-16T09:03:55.789Z,1.45
2024-04-16T09:06:24.135Z,1.20
2024-04-16T09:09:01.561Z,1.30
2024-04-16T09:11:43.193Z,0.70
2024-04-16T09:14:15.513Z,0.75
2024-04-16T09:16:43.494Z,1.02
2024-04-16T09:19:12.439Z,0.95
2024-04-16T09:24:28.701Z,0.90
2024-04-16T09:27:01.109Z,1.50
2024-04-16T09:29:29.085Z,0.95
2024-04-16T09:32:04.612Z,0.98
2024-04-16T09:34:38.339Z,0.70
2024-04-16T09:37:06.686Z,0.75
2024-04-16T09:39:34.430Z,1.70
2024-04-16T09:42:04.204Z,1.00
2024-04-16T09:44:32.407Z,1.00
2024-04-16T09:47:00.510Z,0.70
2024-04-16T09:49:36.174Z,0.93
2024-04-16T09:52:14.097Z,1.00
2024-04-16T09:54:50.374Z,0.88
2024-04-16T09:57:20.065Z,1.00
2024-04-16T09:59:51.048Z,1.08
2024-04-16T10:02:18.784Z,0.82
2024-04-16T10:04:47.754Z,0.65
2024-04-16T10:07:15.264Z,1.20
2024-04-16T10:09:42.992Z,0.85
2024-04-16T10:12:10.573Z,1.25
2024-04-16T10:14:38.396Z,1.33
2024-04-16T10:17:13.454Z,0.73
2024-04-16T10:19:42.860Z,1.70
2024-04-16T10:22:50.457Z,0.47
2024-04-16T10:25:34.518Z,0.73
2024-04-16T10:28:08.736Z,0.63
2024-04-16T10:30:37.305Z,0.73
2024-04-16T10:33:06.506Z,0.90
2024-04-16T10:35:35.650Z,0.90
2024-04-16T10:38:07.259Z,0.95
2024-04-16T10:40:36.547Z,0.80
2024-04-16T10:43:32.199Z,1.55
2024-04-16T10:46:00.953Z,0.80
2024-04-16T10:48:30.077Z,0.82
2024-04-16T10:51:00.451Z,0.47
2024-04-16T10:53:27.955Z,1.00
2024-04-16T10:55:55.821Z,0.40
2024-04-16T10:58:23.481Z,0.70
2024-04-16T11:00:55.381Z,0.52
2024-04-16T11:03:24.409Z,1.33
2024-04-16T11:05:51.945Z,0.63
2024-04-16T11:08:19.461Z,0.40
2024-04-16T11:10:51.922Z,1.52
2024-04-16T11:13:24.814Z,0.30
2024-04-16T11:15:53.869Z,0.30
2024-04-16T11:18:24.722Z,0.90
2024-04-16T11:20:52.363Z,0.60
2024-04-16T11:23:19.976Z,0.57
2024-04-16T11:25:49.593Z,0.68
2024-04-16T11:28:17.712Z,0.47
2024-04-16T11:30:57.133Z,0.60
2024-04-16T11:33:34.425Z,0.88
2024-04-16T11:36:07.133Z,0.50
2024-04-16T11:38:36.260Z,0.52
2024-04-16T11:43:41.533Z,0.60
2024-04-16T11:46:09.802Z,0.90
2024-04-16T11:48:37.332Z,1.02
2024-04-16T11:51:05.199Z,0.60
2024-04-16T11:53:34.068Z,0.50
2024-04-16T11:56:01.812Z,0.88
2024-04-16T11:58:31.908Z,0.60
2024-04-16T12:01:00.619Z,0.60
2024-04-16T12:03:28.162Z,0.70
2024-04-16T12:08:23.314Z,0.93
2024-04-16T12:11:17.405Z,0.80
2024-04-16T12:13:44.962Z,0.65
2024-04-16T12:16:12.739Z,0.90
2024-04-16T12:18:41.253Z,0.85
2024-04-16T12:21:09.298Z,0.63
2024-04-16T12:23:36.898Z,0.70
2024-04-16T12:26:10.580Z,0.80
2024-04-16T12:28:37.982Z,0.57
2024-04-16T12:31:05.667Z,0.77
2024-04-16T12:33:33.349Z,0.68
2024-04-16T12:36:01.076Z,1.08
2024-04-16T12:38:28.544Z,0.80
2024-04-16T12:41:05.221Z,0.60
2024-04-16T12:43:32.648Z,0.60
2024-04-16T12:46:00.865Z,0.60
2024-04-16T12:48:28.696Z,0.60
2024-04-16T12:50:56.439Z,1.00
2024-04-16T12:53:24.130Z,0.73
2024-04-16T12:55:52.053Z,0.80
2024-04-16T12:58:19.669Z,0.55
2024-04-16T13:03:17.058Z,0.93
2024-04-16T13:08:11.749Z,1.20
2024-04-16T13:10:42.025Z,0.82
2024-04-16T13:15:37.265Z,0.80
2024-04-16T13:18:05.772Z,0.73
2024-04-16T13:20:33.254Z,0.70
2024-04-16T13:25:28.177Z,0.77
2024-04-16T13:27:58.539Z,0.40
2024-04-16T13:32:57.856Z,0.40
2024-04-16T13:35:25.708Z,1.27
2024-04-16T13:37:54.776Z,0.57
2024-04-16T13:40:22.563Z,0.60
2024-04-16T13:45:17.283Z,1.63
2024-04-16T13:50:12.451Z,0.80
2024-04-16T13:52:40.221Z,0.68
2024-04-16T13:55:08.070Z,0.47
2024-04-16T13:57:35.515Z,0.38
2024-04-16T14:00:02.937Z,0.63
2024-04-16T14:02:39.729Z,0.47
2024-04-16T14:05:07.646Z,0.32
2024-04-16T14:07:35.339Z,0.93
2024-04-16T14:12:31.004Z,1.27
2024-04-16T14:14:58.663Z,0.68
2024-04-16T14:17:26.231Z,0.60
2024-04-16T14:22:21.575Z,0.85
2024-04-16T14:24:49.244Z,0.55
2024-04-16T14:29:43.825Z,0.32
2024-04-16T14:32:11.391Z,0.43
2024-04-16T14:34:39.016Z,1.10
2024-04-16T14:37:06.630Z,0.60
2024-04-16T14:42:01.378Z,0.50
2024-04-16T14:44:28.890Z,1.02
2024-04-16T14:49:26.052Z,0.93
2024-04-16T14:51:55.009Z,0.60
2024-04-16T14:54:22.562Z,0.73
2024-04-16T14:59:17.535Z,0.52
2024-04-16T15:01:48.142Z,0.57
2024-04-16T15:04:18.434Z,0.77
2024-04-16T15:06:46.414Z,0.55
2024-04-16T15:09:19.126Z,0.50
2024-04-16T15:14:15.728Z,0.85
2024-04-16T15:16:43.334Z,0.60
2024-04-16T15:19:11.055Z,0.75
2024-04-16T15:21:38.673Z,1.00
2024-04-16T15:24:06.972Z,0.60
2024-04-16T15:26:34.783Z,1.10
2024-04-16T15:29:02.726Z,0.77
2024-04-16T15:31:30.373Z,0.65
2024-04-16T15:33:57.953Z,0.52
2024-04-16T15:36:25.527Z,0.98
2024-04-16T15:41:22.061Z,0.50
2024-04-16T15:43:53.443Z,0.90
2024-04-16T15:46:22.685Z,0.85
2024-04-16T15:48:50.554Z,0.57
2024-04-16T15:53:45.458Z,0.73
2024-04-16T15:56:13.099Z,0.70
2024-04-16T15:58:40.633Z,0.57
2024-04-16T16:01:08.814Z,0.73
2024-04-16T16:03:36.506Z,0.70
2024-04-16T16:06:04.103Z,1.00
2024-04-16T16:10:59.169Z,0.80
2024-04-16T16:13:26.766Z,0.60
2024-04-16T16:15:54.300Z,0.73
2024-04-16T16:18:22.192Z,0.77
2024-04-16T16:20:51.566Z,0.98
2024-04-16T16:23:19.407Z,0.93
2024-04-16T16:25:47.318Z,1.02
2024-04-16T16:28:15.036Z,0.95
2024-04-16T16:30:42.830Z,0.50
2024-04-16T16:33:10.739Z,0.50
2024-04-16T16:35:38.388Z,0.93
2024-04-16T16:40:33.350Z,1.05
2024-04-16T16:45:28.242Z,0.88
2024-04-16T16:47:58.155Z,1.63
2024-04-16T16:50:26.696Z,1.10
2024-04-16T16:52:54.870Z,0.73
2024-04-16T16:55:22.529Z,0.75
2024-04-16T17:00:17.650Z,0.55
2024-04-16T17:02:46.146Z,0.55
2024-04-16T17:05:13.864Z,0.55
2024-04-16T17:10:08.977Z,0.20
2024-04-16T17:12:36.630Z,0.60
2024-04-16T17:15:05.928Z,1.27
2024-04-16T17:17:33.628Z,0.70
2024-04-16T17:20:01.357Z,0.57
2024-04-16T17:22:32.353Z,0.68
2024-04-16T17:24:59.941Z,1.20
2024-04-16T17:27:27.584Z,1.23
2024-04-16T17:32:22.775Z,0.73
2024-04-16T17:34:50.599Z,1.05
2024-04-16T17:39:45.859Z,0.47
2024-04-16T17:42:14.429Z,0.82
2024-04-16T17:44:42.156Z,0.90
2024-04-16T17:47:11.326Z,0.95
2024-04-16T17:49:41.499Z,0.52
2024-04-16T17:52:09.219Z,0.50
2024-04-16T17:54:36.781Z,0.80
2024-04-16T17:59:32.436Z,0.70
2024-04-16T18:02:00.374Z,1.15
2024-04-16T18:04:28.229Z,0.80
2024-04-16T18:06:55.869Z,0.90
2024-04-16T18:09:23.325Z,0.85
2024-04-16T18:11:50.918Z,0.90
2024-04-16T18:14:18.530Z,0.90
2024-04-16T18:16:46.083Z,0.75
2024-04-16T18:19:14.515Z,1.35
2024-04-16T18:21:43.062Z,0.75
2024-04-16T18:24:10.764Z,0.90
2024-04-16T18:26:38.395Z,0.80
2024-04-16T18:29:06.198Z,1.27
2024-04-16T18:31:33.891Z,0.47
2024-04-16T18:34:01.491Z,0.75
2024-04-16T18:38:56.725Z,1.15
2024-04-16T18:41:24.985Z,0.75
2024-04-16T18:43:52.774Z,0.68
2024-04-16T18:46:20.611Z,2.08
2024-04-16T18:51:15.688Z,0.68
2024-04-16T18:56:14.868Z,0.98
2024-04-16T18:58:42.591Z,0.50
2024-04-16T19:01:10.215Z,1.15
2024-04-16T19:06:05.250Z,0.77
2024-04-16T19:08:33.344Z,0.22
2024-04-16T19:11:01.139Z,0.68
2024-04-16T19:13:29.183Z,0.43
2024-04-16T19:16:01.089Z,0.60
2024-04-16T19:18:29.534Z,0.60
2024-04-16T19:20:57.131Z,0.47
2024-04-16T19:23:26.866Z,0.65
2024-04-16T19:25:55.054Z,0.40
2024-04-16T19:28:25.624Z,0.90
2024-04-16T19:30:54.789Z,0.68
2024-04-16T19:35:50.026Z,0.77
2024-04-16T19:40:45.116Z,0.88
2024-04-16T19:43:12.590Z,0.57
2024-04-16T19:45:40.208Z,0.98
2024-04-16T19:48:09.867Z,0.55
2024-04-16T19:50:37.620Z,0.47
2024-04-16T19:53:05.088Z,0.60
2024-04-16T19:55:32.689Z,1.15
2024-04-16T19:58:00.147Z,1.08
2024-04-16T20:00:27.711Z,1.05
2024-04-16T20:02:55.678Z,0.90
2024-04-16T20:05:23.540Z,0.90
2024-04-16T20:07:51.212Z,1.13
2024-04-16T20:10:19.129Z,0.57
2024-04-16T20:12:49.770Z,0.95
2024-04-16T20:15:17.481Z,0.57
2024-04-16T20:17:45.180Z,0.75
2024-04-16T20:20:12.849Z,2.35
2024-04-16T20:25:07.959Z,0.98
2024-04-16T20:27:35.459Z,0.85
2024-04-16T20:30:03.797Z,0.77
2024-04-16T20:32:32.680Z,0.85
2024-04-16T20:37:28.272Z,0.90
2024-04-16T20:39:55.879Z,0.93
2024-04-16T20:42:23.610Z,0.98
2024-04-16T20:44:51.144Z,0.88
2024-04-16T20:47:19.036Z,1.15
2024-04-16T20:52:14.359Z,0.95
2024-04-16T20:54:42.042Z,0.80
2024-04-16T20:57:09.645Z,0.98
2024-04-16T20:59:39.503Z,1.20
2024-04-16T21:02:08.233Z,1.05
2024-04-16T21:04:35.908Z,1.05
2024-04-16T21:09:31.083Z,0.57
2024-04-16T21:11:58.697Z,1.63
2024-04-16T21:16:53.733Z,0.85
2024-04-16T21:19:21.261Z,1.15
2024-04-16T21:21:49.179Z,0.95
2024-04-16T21:24:16.708Z,0.57
2024-04-16T21:26:44.152Z,0.70
2024-04-16T21:29:12.095Z,1.10
2024-04-16T21:31:41.901Z,1.17
2024-04-16T21:34:11.527Z,1.45
2024-04-16T21:36:39.044Z,0.82
2024-04-16T21:39:06.775Z,1.00
2024-04-16T21:41:34.416Z,1.13
2024-04-16T21:44:04.588Z,1.40
2024-04-16T21:46:32.489Z,1.33
2024-04-16T21:51:27.662Z,1.40
2024-04-16T21:56:22.587Z,0.73
2024-04-16T21:58:50.169Z,1.15
2024-04-16T22:01:17.803Z,0.70
2024-04-16T22:03:45.564Z,0.93
2024-04-16T22:06:13.313Z,1.10
2024-04-16T22:08:40.919Z,1.40
2024-04-16T22:11:08.957Z,1.20
2024-04-16T22:13:36.543Z,0.70
2024-04-16T22:16:04.934Z,2.08
2024-04-16T22:18:32.546Z,1.33
2024-04-16T22:21:00.425Z,0.55
2024-04-16T22:26:02.559Z,1.25
2024-04-16T22:28:31.144Z,0.93
2024-04-16T22:30:59.041Z,1.17
2024-04-16T22:33:26.892Z,1.13
2024-04-16T22:35:54.618Z,0.90
2024-04-16T22:40:50.608Z,1.25
2024-04-16T22:43:18.663Z,1.13
2024-04-16T22:45:56.659Z,1.48
2024-04-16T22:48:25.812Z,1.77
2024-04-16T22:50:54.374Z,0.63
2024-04-16T22:53:25.059Z,2.58
2024-04-16T22:55:53.105Z,1.02
2024-04-16T22:58:20.992Z,0.50
2024-04-16T23:00:48.619Z,1.20
2024-04-16T23:03:16.922Z,0.68
2024-04-16T23:05:44.702Z,0.63
2024-04-16T23:08:12.483Z,0.50
2024-04-16T23:10:41.391Z,0.68
2024-04-16T23:13:09.398Z,0.90
2024-04-16T23:15:36.907Z,0.80
2024-04-16T23:18:05.030Z,0.80
2024-04-16T23:20:32.818Z,1.30
2024-04-16T23:25:31.164Z,1.00
2024-04-16T23:30:26.270Z,0.88
2024-04-16T23:32:54.332Z,0.82
2024-04-16T23:37:49.210Z,0.75
2024-04-16T23:40:16.820Z,0.95
2024-04-16T23:42:45.566Z,1.20
2024-04-16T23:45:13.172Z,0.60
2024-04-16T23:47:40.723Z,0.80
2024-04-16T23:50:08.490Z,0.82
2024-04-16T23:52:36.083Z,1.20
2024-04-16T23:55:03.746Z,1.17
2024-04-16T23:57:31.395Z,0.90
2024-04-16T23:59:59.025Z,1.10
